Terminal Aerodrome Forecast
Issued by NWS

Home | Current Version | Previous Version | Text Only | Print | Product List | Glossary On
Versions: 1 2 3 4 5 6 7 8 9 10 11 12 13
000
FTUS42 KTAE 242340
TAFECP
TAF
KECP 242340Z 2500/2524 13011KT P6SM SKC
     FM251100 14011KT P6SM VCSH SCT030 PROB30 2514/2517 VRB25KT 2SM
      -TSRA BKN040CB
     FM251800 16013KT P6SM SCT050=

USA.gov is the U.S. government's official web portal to all federal, state and local government web resources and services.